KOAR/OAR METAR and TAF weather

Enter ICAO airport designator
Station Type Date Time Source
KOAR METAR 2021/07/26 12:35 UTC NOAA

KOAR 261235Z AUTO 00000KT 4SM BR OVC003 08/07 A2994 RMK AO2


Station Type Date Time Source
KOAR Decoded METAR 2021/07/26 12:35 UTC NOAA

Station name not available
Jul 26, 2021 - 08:35 AM EDT / 2021.07.26 1235 UTC
Wind: Calm:0
Visibility: 4 mile(s):0
Sky conditions: overcast
Weather: mist
Temperature: 46 F (8 C)
Dew Point: 44 F (7 C)
Relative Humidity: 93%
Pressure (altimeter): 29.94 in. Hg (1013 hPa)
ob: KOAR 261235Z AUTO 00000KT 4SM BR OVC003 08/07 A2994 RMK AO2
cycle: 12

Station Type Date Time Source
KOAR TAF UTC NOAA

Error!

Example: see airport list